sensor_id;sensor_type;location;lat;lon;timestamp;P1;durP1;ratioP1;P2;durP2;ratioP2
22565;SDS011;11449;51.330;19.378;2023-05-10T00:03:58;11.30;;;5.60;;
22565;SDS011;11449;51.330;19.378;2023-05-10T00:09:06;12.50;;;6.40;;
22565;SDS011;11449;51.330;19.378;2023-05-10T00:14:14;7.80;;;5.20;;
22565;SDS011;11449;51.330;19.378;2023-05-10T00:19:22;9.90;;;5.50;;
22565;SDS011;11449;51.330;19.378;2023-05-10T00:24:29;10.50;;;5.10;;
22565;SDS011;11449;51.330;19.378;2023-05-10T00:29:37;14.30;;;5.20;;
22565;SDS011;11449;51.330;19.378;2023-05-10T00:34:45;10.90;;;5.80;;
22565;SDS011;11449;51.330;19.378;2023-05-10T00:39:52;10.90;;;5.40;;
22565;SDS011;11449;51.330;19.378;2023-05-10T00:45:00;9.80;;;5.10;;
22565;SDS011;11449;51.330;19.378;2023-05-10T00:50:09;8.40;;;4.80;;
22565;SDS011;11449;51.330;19.378;2023-05-10T00:55:17;12.70;;;5.50;;
22565;SDS011;11449;51.330;19.378;2023-05-10T01:00:25;10.00;;;5.00;;
22565;SDS011;11449;51.330;19.378;2023-05-10T01:05:33;12.70;;;5.70;;
22565;SDS011;11449;51.330;19.378;2023-05-10T01:10:41;11.40;;;5.60;;
22565;SDS011;11449;51.330;19.378;2023-05-10T01:15:50;8.60;;;5.30;;
22565;SDS011;11449;51.330;19.378;2023-05-10T01:37:06;11.20;;;5.70;;
22565;SDS011;11449;51.330;19.378;2023-05-10T01:42:20;9.20;;;5.50;;
22565;SDS011;11449;51.330;19.378;2023-05-10T01:47:50;9.50;;;4.50;;
22565;SDS011;11449;51.330;19.378;2023-05-10T01:53:13;9.00;;;4.70;;
22565;SDS011;11449;51.330;19.378;2023-05-10T01:58:32;10.00;;;5.00;;
22565;SDS011;11449;51.330;19.378;2023-05-10T02:03:43;12.00;;;5.60;;
22565;SDS011;11449;51.330;19.378;2023-05-10T02:08:52;9.80;;;4.90;;
22565;SDS011;11449;51.330;19.378;2023-05-10T02:14:01;9.20;;;5.20;;
22565;SDS011;11449;51.330;19.378;2023-05-10T02:19:09;10.20;;;5.20;;
22565;SDS011;11449;51.330;19.378;2023-05-10T02:24:19;12.70;;;6.20;;
22565;SDS011;11449;51.330;19.378;2023-05-10T02:29:28;9.30;;;5.80;;
22565;SDS011;11449;51.330;19.378;2023-05-10T02:34:37;8.30;;;5.40;;
22565;SDS011;11449;51.330;19.378;2023-05-10T02:39:47;11.50;;;5.30;;
22565;SDS011;11449;51.330;19.378;2023-05-10T02:44:57;10.40;;;5.40;;
22565;SDS011;11449;51.330;19.378;2023-05-10T02:50:08;9.30;;;4.90;;
22565;SDS011;11449;51.330;19.378;2023-05-10T02:55:16;7.50;;;4.90;;
22565;SDS011;11449;51.330;19.378;2023-05-10T03:00:28;8.00;;;5.00;;
22565;SDS011;11449;51.330;19.378;2023-05-10T03:05:36;13.10;;;5.50;;
22565;SDS011;11449;51.330;19.378;2023-05-10T03:10:52;9.70;;;5.20;;
22565;SDS011;11449;51.330;19.378;2023-05-10T03:16:14;12.40;;;5.90;;
22565;SDS011;11449;51.330;19.378;2023-05-10T03:21:25;12.10;;;6.60;;
22565;SDS011;11449;51.330;19.378;2023-05-10T03:26:37;11.00;;;6.20;;
22565;SDS011;11449;51.330;19.378;2023-05-10T03:31:49;11.50;;;6.20;;
22565;SDS011;11449;51.330;19.378;2023-05-10T03:36:56;11.50;;;6.60;;
22565;SDS011;11449;51.330;19.378;2023-05-10T03:42:06;9.90;;;4.50;;
22565;SDS011;11449;51.330;19.378;2023-05-10T03:47:14;7.70;;;4.90;;
22565;SDS011;11449;51.330;19.378;2023-05-10T03:52:22;9.00;;;4.60;;
22565;SDS011;11449;51.330;19.378;2023-05-10T03:57:30;10.80;;;5.60;;
22565;SDS011;11449;51.330;19.378;2023-05-10T04:02:38;8.60;;;3.80;;
22565;SDS011;11449;51.330;19.378;2023-05-10T04:07:51;11.60;;;4.30;;
22565;SDS011;11449;51.330;19.378;2023-05-10T04:12:59;9.70;;;4.40;;
22565;SDS011;11449;51.330;19.378;2023-05-10T04:18:06;7.70;;;3.90;;
22565;SDS011;11449;51.330;19.378;2023-05-10T04:23:14;8.00;;;4.10;;
22565;SDS011;11449;51.330;19.378;2023-05-10T04:28:23;8.20;;;4.30;;
22565;SDS011;11449;51.330;19.378;2023-05-10T04:33:31;16.00;;;4.20;;
22565;SDS011;11449;51.330;19.378;2023-05-10T04:38:39;9.40;;;3.60;;
22565;SDS011;11449;51.330;19.378;2023-05-10T04:43:47;7.60;;;4.50;;
22565;SDS011;11449;51.330;19.378;2023-05-10T04:48:56;8.90;;;3.70;;
22565;SDS011;11449;51.330;19.378;2023-05-10T04:54:04;7.70;;;4.10;;
22565;SDS011;11449;51.330;19.378;2023-05-10T04:59:12;8.40;;;3.50;;
22565;SDS011;11449;51.330;19.378;2023-05-10T05:04:20;7.50;;;4.60;;
22565;SDS011;11449;51.330;19.378;2023-05-10T05:09:28;10.70;;;3.90;;
22565;SDS011;11449;51.330;19.378;2023-05-10T05:14:35;6.10;;;4.10;;
22565;SDS011;11449;51.330;19.378;2023-05-10T05:19:43;7.50;;;4.10;;
22565;SDS011;11449;51.330;19.378;2023-05-10T05:24:51;7.70;;;3.80;;
22565;SDS011;11449;51.330;19.378;2023-05-10T05:29:59;8.20;;;4.40;;
22565;SDS011;11449;51.330;19.378;2023-05-10T05:35:06;6.90;;;3.40;;
22565;SDS011;11449;51.330;19.378;2023-05-10T05:40:14;7.00;;;4.00;;
22565;SDS011;11449;51.330;19.378;2023-05-10T05:45:22;7.20;;;4.20;;
22565;SDS011;11449;51.330;19.378;2023-05-10T05:50:30;7.60;;;3.60;;
22565;SDS011;11449;51.330;19.378;2023-05-10T05:55:38;5.90;;;3.30;;
22565;SDS011;11449;51.330;19.378;2023-05-10T06:00:45;10.10;;;5.10;;
22565;SDS011;11449;51.330;19.378;2023-05-10T06:05:53;6.70;;;4.00;;
22565;SDS011;11449;51.330;19.378;2023-05-10T06:11:01;6.50;;;3.90;;
22565;SDS011;11449;51.330;19.378;2023-05-10T06:16:09;5.80;;;3.70;;
22565;SDS011;11449;51.330;19.378;2023-05-10T06:21:16;7.20;;;3.60;;
22565;SDS011;11449;51.330;19.378;2023-05-10T06:26:24;5.10;;;3.80;;
22565;SDS011;11449;51.330;19.378;2023-05-10T06:31:32;7.00;;;3.80;;
22565;SDS011;11449;51.330;19.378;2023-05-10T06:36:40;9.80;;;4.10;;
22565;SDS011;11449;51.330;19.378;2023-05-10T06:41:48;6.90;;;3.30;;
22565;SDS011;11449;51.330;19.378;2023-05-10T06:46:56;7.30;;;3.30;;
22565;SDS011;11449;51.330;19.378;2023-05-10T06:52:04;8.10;;;3.90;;
22565;SDS011;11449;51.330;19.378;2023-05-10T06:57:11;5.70;;;3.90;;
22565;SDS011;11449;51.330;19.378;2023-05-10T07:02:19;6.40;;;4.20;;
22565;SDS011;11449;51.330;19.378;2023-05-10T07:07:27;12.50;;;4.40;;
22565;SDS011;11449;51.330;19.378;2023-05-10T07:12:36;7.90;;;3.80;;
22565;SDS011;11449;51.330;19.378;2023-05-10T07:17:44;5.70;;;3.60;;
22565;SDS011;11449;51.330;19.378;2023-05-10T07:22:52;6.00;;;3.90;;
22565;SDS011;11449;51.330;19.378;2023-05-10T07:28:00;4.20;;;3.50;;
22565;SDS011;11449;51.330;19.378;2023-05-10T07:33:08;8.40;;;4.10;;
22565;SDS011;11449;51.330;19.378;2023-05-10T07:38:17;7.30;;;4.00;;
22565;SDS011;11449;51.330;19.378;2023-05-10T07:43:25;6.30;;;4.30;;
22565;SDS011;11449;51.330;19.378;2023-05-10T07:48:33;8.50;;;3.70;;
22565;SDS011;11449;51.330;19.378;2023-05-10T07:53:40;6.10;;;3.80;;
22565;SDS011;11449;51.330;19.378;2023-05-10T07:58:48;9.40;;;4.20;;
22565;SDS011;11449;51.330;19.378;2023-05-10T08:03:56;7.30;;;4.50;;
22565;SDS011;11449;51.330;19.378;2023-05-10T08:09:04;6.30;;;4.70;;
22565;SDS011;11449;51.330;19.378;2023-05-10T08:14:12;6.70;;;4.50;;
22565;SDS011;11449;51.330;19.378;2023-05-10T08:19:19;9.80;;;6.10;;
22565;SDS011;11449;51.330;19.378;2023-05-10T08:24:28;7.60;;;4.10;;
22565;SDS011;11449;51.330;19.378;2023-05-10T08:29:37;10.90;;;4.10;;
22565;SDS011;11449;51.330;19.378;2023-05-10T08:34:45;7.80;;;4.40;;
22565;SDS011;11449;51.330;19.378;2023-05-10T08:39:52;9.70;;;4.00;;
22565;SDS011;11449;51.330;19.378;2023-05-10T08:45:00;6.50;;;4.70;;
22565;SDS011;11449;51.330;19.378;2023-05-10T08:50:10;6.70;;;4.00;;
22565;SDS011;11449;51.330;19.378;2023-05-10T08:55:19;9.10;;;4.20;;
22565;SDS011;11449;51.330;19.378;2023-05-10T09:00:27;5.10;;;3.90;;
22565;SDS011;11449;51.330;19.378;2023-05-10T09:05:36;16.70;;;4.40;;
22565;SDS011;11449;51.330;19.378;2023-05-10T09:10:44;6.70;;;4.00;;
22565;SDS011;11449;51.330;19.378;2023-05-10T09:15:54;15.80;;;5.20;;
22565;SDS011;11449;51.330;19.378;2023-05-10T09:21:03;10.40;;;4.30;;
22565;SDS011;11449;51.330;19.378;2023-05-10T09:26:10;9.60;;;4.10;;
22565;SDS011;11449;51.330;19.378;2023-05-10T09:31:18;6.30;;;3.90;;
22565;SDS011;11449;51.330;19.378;2023-05-10T09:36:26;8.20;;;3.90;;
22565;SDS011;11449;51.330;19.378;2023-05-10T09:41:34;9.50;;;4.80;;
22565;SDS011;11449;51.330;19.378;2023-05-10T09:46:42;8.30;;;3.40;;
22565;SDS011;11449;51.330;19.378;2023-05-10T09:51:59;9.40;;;4.00;;
22565;SDS011;11449;51.330;19.378;2023-05-10T09:57:11;5.60;;;4.00;;
22565;SDS011;11449;51.330;19.378;2023-05-10T10:02:28;3.50;;;2.90;;
22565;SDS011;11449;51.330;19.378;2023-05-10T10:07:36;6.50;;;2.90;;
22565;SDS011;11449;51.330;19.378;2023-05-10T10:12:45;6.70;;;3.10;;
22565;SDS011;11449;51.330;19.378;2023-05-10T10:17:53;5.90;;;3.40;;
22565;SDS011;11449;51.330;19.378;2023-05-10T10:23:01;5.40;;;3.30;;
22565;SDS011;11449;51.330;19.378;2023-05-10T10:39:08;5.10;;;2.90;;
22565;SDS011;11449;51.330;19.378;2023-05-10T11:00:31;7.70;;;3.20;;
22565;SDS011;11449;51.330;19.378;2023-05-10T11:05:41;5.20;;;2.90;;
22565;SDS011;11449;51.330;19.378;2023-05-10T11:10:51;4.70;;;3.10;;
22565;SDS011;11449;51.330;19.378;2023-05-10T11:21:23;7.80;;;3.20;;
22565;SDS011;11449;51.330;19.378;2023-05-10T11:26:34;8.30;;;3.30;;
22565;SDS011;11449;51.330;19.378;2023-05-10T11:31:43;3.20;;;2.70;;
22565;SDS011;11449;51.330;19.378;2023-05-10T11:36:53;4.40;;;3.10;;
22565;SDS011;11449;51.330;19.378;2023-05-10T11:42:02;6.40;;;3.20;;
22565;SDS011;11449;51.330;19.378;2023-05-10T11:47:10;7.60;;;4.00;;
22565;SDS011;11449;51.330;19.378;2023-05-10T11:52:19;4.60;;;3.60;;
22565;SDS011;11449;51.330;19.378;2023-05-10T11:57:27;4.40;;;3.30;;
22565;SDS011;11449;51.330;19.378;2023-05-10T12:02:38;5.00;;;3.30;;
22565;SDS011;11449;51.330;19.378;2023-05-10T12:07:46;6.90;;;4.20;;
22565;SDS011;11449;51.330;19.378;2023-05-10T12:12:54;10.00;;;3.00;;
22565;SDS011;11449;51.330;19.378;2023-05-10T12:18:03;8.10;;;3.80;;
22565;SDS011;11449;51.330;19.378;2023-05-10T12:23:12;11.20;;;4.00;;
22565;SDS011;11449;51.330;19.378;2023-05-10T12:28:20;8.80;;;4.20;;
22565;SDS011;11449;51.330;19.378;2023-05-10T12:33:42;9.90;;;4.00;;
22565;SDS011;11449;51.330;19.378;2023-05-10T12:38:51;7.90;;;3.70;;
22565;SDS011;11449;51.330;19.378;2023-05-10T12:44:10;8.60;;;3.80;;
22565;SDS011;11449;51.330;19.378;2023-05-10T12:49:17;13.10;;;4.40;;
22565;SDS011;11449;51.330;19.378;2023-05-10T12:54:27;9.90;;;4.10;;
22565;SDS011;11449;51.330;19.378;2023-05-10T12:59:35;7.00;;;3.70;;
22565;SDS011;11449;51.330;19.378;2023-05-10T13:04:43;7.90;;;4.50;;
22565;SDS011;11449;51.330;19.378;2023-05-10T13:09:51;5.30;;;3.60;;
22565;SDS011;11449;51.330;19.378;2023-05-10T13:14:58;4.40;;;2.90;;
22565;SDS011;11449;51.330;19.378;2023-05-10T13:20:06;4.00;;;2.60;;
22565;SDS011;11449;51.330;19.378;2023-05-10T13:25:14;6.00;;;3.00;;
22565;SDS011;11449;51.330;19.378;2023-05-10T13:30:22;7.00;;;3.30;;
22565;SDS011;11449;51.330;19.378;2023-05-10T13:35:31;7.00;;;3.60;;
22565;SDS011;11449;51.330;19.378;2023-05-10T13:40:38;8.50;;;3.80;;
22565;SDS011;11449;51.330;19.378;2023-05-10T13:45:46;10.80;;;3.70;;
22565;SDS011;11449;51.330;19.378;2023-05-10T13:50:54;5.00;;;3.00;;
22565;SDS011;11449;51.330;19.378;2023-05-10T13:56:02;6.10;;;3.60;;
22565;SDS011;11449;51.330;19.378;2023-05-10T14:01:10;5.90;;;3.70;;
22565;SDS011;11449;51.330;19.378;2023-05-10T14:06:19;4.60;;;2.90;;
22565;SDS011;11449;51.330;19.378;2023-05-10T14:11:27;7.50;;;3.80;;
22565;SDS011;11449;51.330;19.378;2023-05-10T14:16:34;8.10;;;4.30;;
22565;SDS011;11449;51.330;19.378;2023-05-10T14:21:42;6.60;;;4.10;;
22565;SDS011;11449;51.330;19.378;2023-05-10T14:26:50;6.40;;;3.60;;
22565;SDS011;11449;51.330;19.378;2023-05-10T14:32:00;3.70;;;3.30;;
22565;SDS011;11449;51.330;19.378;2023-05-10T14:37:09;3.30;;;3.00;;
22565;SDS011;11449;51.330;19.378;2023-05-10T14:42:18;6.40;;;3.80;;
22565;SDS011;11449;51.330;19.378;2023-05-10T14:47:26;4.60;;;3.30;;
22565;SDS011;11449;51.330;19.378;2023-05-10T14:52:34;4.70;;;3.10;;
22565;SDS011;11449;51.330;19.378;2023-05-10T14:57:42;5.70;;;3.10;;
22565;SDS011;11449;51.330;19.378;2023-05-10T15:02:51;3.40;;;2.80;;
22565;SDS011;11449;51.330;19.378;2023-05-10T15:07:59;7.80;;;3.50;;
22565;SDS011;11449;51.330;19.378;2023-05-10T15:13:07;5.80;;;3.40;;
22565;SDS011;11449;51.330;19.378;2023-05-10T15:18:14;8.50;;;3.00;;
22565;SDS011;11449;51.330;19.378;2023-05-10T15:23:22;6.30;;;2.80;;
22565;SDS011;11449;51.330;19.378;2023-05-10T15:28:30;6.70;;;3.30;;
22565;SDS011;11449;51.330;19.378;2023-05-10T15:33:38;4.80;;;3.00;;
22565;SDS011;11449;51.330;19.378;2023-05-10T15:38:46;6.40;;;3.10;;
22565;SDS011;11449;51.330;19.378;2023-05-10T15:43:54;4.30;;;2.70;;
22565;SDS011;11449;51.330;19.378;2023-05-10T15:49:02;4.80;;;2.90;;
22565;SDS011;11449;51.330;19.378;2023-05-10T15:54:10;6.40;;;3.10;;
22565;SDS011;11449;51.330;19.378;2023-05-10T15:59:17;5.10;;;2.90;;
22565;SDS011;11449;51.330;19.378;2023-05-10T16:04:25;4.30;;;2.70;;
22565;SDS011;11449;51.330;19.378;2023-05-10T16:09:33;8.60;;;3.90;;
22565;SDS011;11449;51.330;19.378;2023-05-10T16:14:41;4.30;;;3.00;;
22565;SDS011;11449;51.330;19.378;2023-05-10T16:19:49;5.80;;;3.10;;
22565;SDS011;11449;51.330;19.378;2023-05-10T16:24:57;3.90;;;2.70;;
22565;SDS011;11449;51.330;19.378;2023-05-10T16:30:05;8.60;;;3.40;;
22565;SDS011;11449;51.330;19.378;2023-05-10T16:35:14;4.60;;;2.90;;
22565;SDS011;11449;51.330;19.378;2023-05-10T16:40:21;7.20;;;4.40;;
22565;SDS011;11449;51.330;19.378;2023-05-10T16:45:30;5.80;;;4.00;;
22565;SDS011;11449;51.330;19.378;2023-05-10T16:50:34;11.30;;;7.00;;
22565;SDS011;11449;51.330;19.378;2023-05-10T16:55:41;7.00;;;4.60;;
22565;SDS011;11449;51.330;19.378;2023-05-10T17:00:49;2.80;;;2.50;;
22565;SDS011;11449;51.330;19.378;2023-05-10T17:05:57;9.10;;;3.90;;
22565;SDS011;11449;51.330;19.378;2023-05-10T17:11:05;5.60;;;2.50;;
22565;SDS011;11449;51.330;19.378;2023-05-10T17:16:13;4.30;;;2.60;;
22565;SDS011;11449;51.330;19.378;2023-05-10T17:21:21;4.60;;;3.00;;
22565;SDS011;11449;51.330;19.378;2023-05-10T17:26:28;9.50;;;3.90;;
22565;SDS011;11449;51.330;19.378;2023-05-10T17:31:36;6.30;;;3.30;;
22565;SDS011;11449;51.330;19.378;2023-05-10T17:36:44;12.70;;;5.60;;
22565;SDS011;11449;51.330;19.378;2023-05-10T17:41:51;15.80;;;6.80;;
22565;SDS011;11449;51.330;19.378;2023-05-10T17:46:59;5.50;;;4.70;;
22565;SDS011;11449;51.330;19.378;2023-05-10T17:52:07;7.60;;;5.00;;
22565;SDS011;11449;51.330;19.378;2023-05-10T17:57:15;12.50;;;5.30;;
22565;SDS011;11449;51.330;19.378;2023-05-10T18:02:23;11.50;;;5.70;;
22565;SDS011;11449;51.330;19.378;2023-05-10T18:07:31;5.90;;;4.00;;
22565;SDS011;11449;51.330;19.378;2023-05-10T18:12:39;4.90;;;3.20;;
22565;SDS011;11449;51.330;19.378;2023-05-10T18:17:47;13.10;;;4.90;;
22565;SDS011;11449;51.330;19.378;2023-05-10T18:22:55;9.00;;;5.00;;
22565;SDS011;11449;51.330;19.378;2023-05-10T18:28:04;6.10;;;4.00;;
22565;SDS011;11449;51.330;19.378;2023-05-10T18:33:14;5.90;;;4.00;;
22565;SDS011;11449;51.330;19.378;2023-05-10T18:38:22;8.50;;;3.90;;
22565;SDS011;11449;51.330;19.378;2023-05-10T18:43:29;6.60;;;3.80;;
22565;SDS011;11449;51.330;19.378;2023-05-10T18:48:37;7.10;;;4.30;;
22565;SDS011;11449;51.330;19.378;2023-05-10T18:53:45;7.60;;;4.30;;
22565;SDS011;11449;51.330;19.378;2023-05-10T18:58:53;8.20;;;4.70;;
22565;SDS011;11449;51.330;19.378;2023-05-10T19:04:01;8.50;;;4.60;;
22565;SDS011;11449;51.330;19.378;2023-05-10T19:09:08;8.20;;;4.90;;
22565;SDS011;11449;51.330;19.378;2023-05-10T19:14:16;7.50;;;5.00;;
22565;SDS011;11449;51.330;19.378;2023-05-10T19:19:24;9.20;;;4.80;;
22565;SDS011;11449;51.330;19.378;2023-05-10T19:24:33;9.60;;;5.20;;
22565;SDS011;11449;51.330;19.378;2023-05-10T19:29:43;10.40;;;4.60;;
22565;SDS011;11449;51.330;19.378;2023-05-10T19:34:51;9.40;;;5.10;;
22565;SDS011;11449;51.330;19.378;2023-05-10T19:39:59;6.50;;;4.20;;
22565;SDS011;11449;51.330;19.378;2023-05-10T19:45:07;8.00;;;4.20;;
22565;SDS011;11449;51.330;19.378;2023-05-10T19:50:15;6.40;;;3.80;;
22565;SDS011;11449;51.330;19.378;2023-05-10T19:55:24;9.30;;;3.60;;
22565;SDS011;11449;51.330;19.378;2023-05-10T20:00:34;6.30;;;3.00;;
22565;SDS011;11449;51.330;19.378;2023-05-10T20:05:42;7.20;;;3.00;;
22565;SDS011;11449;51.330;19.378;2023-05-10T20:10:50;4.80;;;3.40;;
22565;SDS011;11449;51.330;19.378;2023-05-10T20:15:58;6.40;;;2.90;;
22565;SDS011;11449;51.330;19.378;2023-05-10T20:21:06;5.60;;;3.30;;
22565;SDS011;11449;51.330;19.378;2023-05-10T20:26:14;9.70;;;3.60;;
22565;SDS011;11449;51.330;19.378;2023-05-10T20:31:22;8.40;;;3.20;;
22565;SDS011;11449;51.330;19.378;2023-05-10T20:36:29;4.90;;;3.30;;
22565;SDS011;11449;51.330;19.378;2023-05-10T20:41:37;6.20;;;3.10;;
22565;SDS011;11449;51.330;19.378;2023-05-10T20:46:45;6.10;;;3.20;;
22565;SDS011;11449;51.330;19.378;2023-05-10T20:51:53;10.10;;;3.10;;
22565;SDS011;11449;51.330;19.378;2023-05-10T20:57:01;6.90;;;3.20;;
22565;SDS011;11449;51.330;19.378;2023-05-10T21:02:09;8.60;;;3.50;;
22565;SDS011;11449;51.330;19.378;2023-05-10T21:07:17;7.40;;;4.50;;
22565;SDS011;11449;51.330;19.378;2023-05-10T21:12:25;6.20;;;3.50;;
22565;SDS011;11449;51.330;19.378;2023-05-10T21:17:33;8.10;;;3.70;;
22565;SDS011;11449;51.330;19.378;2023-05-10T21:22:40;9.60;;;4.00;;
22565;SDS011;11449;51.330;19.378;2023-05-10T21:27:48;10.10;;;4.20;;
22565;SDS011;11449;51.330;19.378;2023-05-10T21:32:56;10.00;;;3.90;;
22565;SDS011;11449;51.330;19.378;2023-05-10T21:38:06;11.30;;;4.20;;
22565;SDS011;11449;51.330;19.378;2023-05-10T21:43:14;6.10;;;3.80;;
22565;SDS011;11449;51.330;19.378;2023-05-10T21:48:23;9.30;;;4.10;;
22565;SDS011;11449;51.330;19.378;2023-05-10T21:53:34;8.00;;;3.40;;
22565;SDS011;11449;51.330;19.378;2023-05-10T21:58:44;9.80;;;3.60;;
22565;SDS011;11449;51.330;19.378;2023-05-10T22:03:52;5.40;;;3.00;;
22565;SDS011;11449;51.330;19.378;2023-05-10T22:09:00;7.30;;;3.50;;
22565;SDS011;11449;51.330;19.378;2023-05-10T22:14:09;9.90;;;3.40;;
22565;SDS011;11449;51.330;19.378;2023-05-10T22:19:17;7.80;;;4.00;;
22565;SDS011;11449;51.330;19.378;2023-05-10T22:24:25;7.60;;;4.10;;
22565;SDS011;11449;51.330;19.378;2023-05-10T22:29:33;6.60;;;3.80;;
22565;SDS011;11449;51.330;19.378;2023-05-10T22:34:41;7.60;;;3.40;;
22565;SDS011;11449;51.330;19.378;2023-05-10T22:39:49;6.40;;;3.60;;
22565;SDS011;11449;51.330;19.378;2023-05-10T22:44:57;8.80;;;4.90;;
22565;SDS011;11449;51.330;19.378;2023-05-10T22:50:05;7.70;;;4.20;;
22565;SDS011;11449;51.330;19.378;2023-05-10T22:55:14;9.70;;;4.90;;
22565;SDS011;11449;51.330;19.378;2023-05-10T23:00:21;10.70;;;4.60;;
22565;SDS011;11449;51.330;19.378;2023-05-10T23:05:25;7.80;;;4.80;;
22565;SDS011;11449;51.330;19.378;2023-05-10T23:10:33;8.90;;;4.20;;
22565;SDS011;11449;51.330;19.378;2023-05-10T23:15:41;9.80;;;4.70;;
22565;SDS011;11449;51.330;19.378;2023-05-10T23:20:50;10.30;;;4.40;;
22565;SDS011;11449;51.330;19.378;2023-05-10T23:25:59;9.70;;;4.60;;
22565;SDS011;11449;51.330;19.378;2023-05-10T23:31:08;9.60;;;4.60;;
22565;SDS011;11449;51.330;19.378;2023-05-10T23:36:15;11.90;;;4.30;;
22565;SDS011;11449;51.330;19.378;2023-05-10T23:41:24;9.60;;;4.60;;
22565;SDS011;11449;51.330;19.378;2023-05-10T23:46:32;8.20;;;3.90;;
22565;SDS011;11449;51.330;19.378;2023-05-10T23:51:40;8.40;;;4.00;;
22565;SDS011;11449;51.330;19.378;2023-05-10T23:56:48;12.30;;;5.80;;
